Zaliv Vostok — A8RM6 — position and weather

sailwx.info

Track history (hours):
 
Tides and Currents Weather Stations Pressure Air Temp Water Temp Dewpoint Dewpoint Depression Visibility Wind Speed Wind Dir Waves Ship Positions

Zaliv Vostok

Last reported at 2014-Jul-02 20:34 UTC. Time now 2014-Jul-24 21:40 UTC.
Position N 01°13' E 103°55'.
Warning: this ship's position is 22 days out of date.

Length 243 m; draft 11 m.

Type: Ship. MMSI: 636014127.

Date/timePositionNaut miles runAvg speedWind from/ knotsBaromVisibWave heightAir tempDewpointWater temp
2014-Jul-02 20:34N 01°13' E 103°55'8 8.0
2014-Jul-02 19:32N 01°14' E 103°46'0 0.1
2014-Jul-02 18:33N 01°14' E 103°46'0 0.1
2014-Jul-02 17:32N 01°14' E 103°46'0 0.0
2014-Jul-02 16:32N 01°14' E 103°46'0 0.0
2014-Jul-02 15:31N 01°14' E 103°46'0 0.0
2014-Jul-02 14:31N 01°14' E 103°46'0 0.0
2014-Jul-02 13:33N 01°14' E 103°46'0 0.0
2014-Jul-02 12:33N 01°14' E 103°46'0 0.0
2014-Jul-02 11:32N 01°14' E 103°46'0 0.0
2014-Jul-02 10:32N 01°14' E 103°46'0 0.0
2014-Jul-02 09:32N 01°14' E 103°46'0 0.0
2014-Jul-02 08:31N 01°14' E 103°46'0 0.0
2014-Jul-02 07:31N 01°14' E 103°46'0 0.0
2014-Jul-02 06:33N 01°14' E 103°46'0 0.0
2014-Jul-02 05:33N 01°14' E 103°46'0 0.1
2014-Jul-02 04:29N 01°14' E 103°46'0 0.0
2014-Jul-02 03:29N 01°14' E 103°46'0 0.0
2014-Jul-02 02:28N 01°14' E 103°46'0 0.0
2014-Jul-02 01:31N 01°14' E 103°46'0 0.0
2014-Jul-02 00:33N 01°14' E 103°46'0 0.0
2014-Jul-01 23:33N 01°14' E 103°46'0 0.0
2014-Jul-01 22:26N 01°14' E 103°46'0 0.0
2014-Jul-01 21:26N 01°14' E 103°46'0 0.0
2014-Jul-01 20:29N 01°14' E 103°46'0 0.0
2014-Jul-01 19:31N 01°14' E 103°46'0 0.0
2014-Jul-01 18:31N 01°14' E 103°46'0 0.0
2014-Jul-01 17:33N 01°14' E 103°46'0 0.0
2014-Jul-01 16:33N 01°14' E 103°46'0 0.0
2014-Jul-01 15:30N 01°14' E 103°46'1 1.1
2014-Jul-01 14:34N 01°14' E 103°47'8 7.9
2014-Jul-01 13:33N 01°15' E 103°55'0 0.4
2014-Jul-01 12:25N 01°15' E 103°55'0 0.0
2014-Jul-01 11:25N 01°15' E 103°55'0 0.0
2014-Jul-01 09:24N 01°15' E 103°55'0 0.0
2014-Jul-01 08:29N 01°15' E 103°55'0 0.0
2014-Jun-30 22:25N 01°15' E 103°55'0 0.0
2014-Jun-30 21:33N 01°15' E 103°55'0 0.0
2014-Jun-30 17:08N 01°15' E 103°55'0 0.0
2014-Jun-30 09:33N 01°15' E 103°55'7 7.0
2014-Jun-30 08:33N 01°13' E 103°48'5 3.5
2014-Jun-30 07:07N 01°17' E 103°44'0 0.0
2014-Jun-30 05:03N 01°17' E 103°44'0 0.0
2014-Jun-30 04:33N 01°17' E 103°44'0 0.0
2014-Jun-30 03:33N 01°17' E 103°44'0 0.0
2014-Jun-30 02:29N 01°17' E 103°44'0 0.0
2014-Jun-30 01:32N 01°17' E 103°44'0 0.0
2014-Jun-30 00:31N 01°17' E 103°44'0 0.0
2014-Jun-29 23:19N 01°17' E 103°44'0 0.0
2014-Jun-29 22:31N 01°17' E 103°44'0 0.0
2014-Jun-29 21:33N 01°17' E 103°44'0 0.0
2014-Jun-29 20:21N 01°17' E 103°44'0 0.0
2014-Jun-29 19:29N 01°17' E 103°44'0 0.0
2014-Jun-29 18:32N 01°17' E 103°44'0 0.0
2014-Jun-29 17:16N 01°17' E 103°44'0 0.0
2014-Jun-29 16:28N 01°17' E 103°44'0 0.0
2014-Jun-29 15:28N 01°17' E 103°44'0 0.0
2014-Jun-29 14:27N 01°17' E 103°44'0 0.0
2014-Jun-29 13:33N 01°17' E 103°44'0 0.0
2014-Jun-29 12:20N 01°17' E 103°44'0 0.0
2014-Jun-29 11:32N 01°17' E 103°44'0 0.0
2014-Jun-29 10:30N 01°17' E 103°44'0 0.0
2014-Jun-29 09:31N 01°17' E 103°44'0 0.0
2014-Jun-29 08:34N 01°17' E 103°44'0 0.0
2014-Jun-29 07:18N 01°17' E 103°44'0 0.0
2014-Jun-29 06:33N 01°17' E 103°44'0 0.0
2014-Jun-29 05:17N 01°17' E 103°44'0 0.0
2014-Jun-29 04:32N 01°17' E 103°44'0 0.1
2014-Jun-29 03:33N 01°17' E 103°44'2 2.2
2014-Jun-29 02:33N 01°15' E 103°43'4 4.1
2014-Jun-29 01:32N 01°12' E 103°40'0 0.0
2014-Jun-29 00:29N 01°12' E 103°40'0 0.0
2014-Jun-28 23:31N 01°12' E 103°40'1 0.9
2014-Jun-28 22:33N 01°12' E 103°40'5 5.0
2014-Jun-28 21:33N 01°12' E 103°35'5 4.8
2014-Jun-28 20:32N 01°09' E 103°31'  
Track history (hours):
 
Tides and Currents Weather Stations Pressure Air Temp Water Temp Dewpoint Dewpoint Depression Visibility Wind Speed Wind Dir Waves Ship Positions

Zaliv Vostok

Last reported at 2014-Jul-02 20:34 UTC. Time now 2014-Jul-24 21:40 UTC.
Position N 01°13' E 103°55'.
Warning: this ship's position is 22 days out of date.

Length 243 m; draft 11 m.

Type: Ship. MMSI: 636014127.

Date/timePositionNaut miles runAvg speedWind from/ knotsBaromVisibWave heightAir tempDewpointWater temp
2014-Jul-02 20:34N 01°13' E 103°55'8 8.0
2014-Jul-02 19:32N 01°14' E 103°46'0 0.1
2014-Jul-02 18:33N 01°14' E 103°46'0 0.1
2014-Jul-02 17:32N 01°14' E 103°46'0 0.0
2014-Jul-02 16:32N 01°14' E 103°46'0 0.0
2014-Jul-02 15:31N 01°14' E 103°46'0 0.0
2014-Jul-02 14:31N 01°14' E 103°46'0 0.0
2014-Jul-02 13:33N 01°14' E 103°46'0 0.0
2014-Jul-02 12:33N 01°14' E 103°46'0 0.0
2014-Jul-02 11:32N 01°14' E 103°46'0 0.0
2014-Jul-02 10:32N 01°14' E 103°46'0 0.0
2014-Jul-02 09:32N 01°14' E 103°46'0 0.0
2014-Jul-02 08:31N 01°14' E 103°46'0 0.0
2014-Jul-02 07:31N 01°14' E 103°46'0 0.0
2014-Jul-02 06:33N 01°14' E 103°46'0 0.0
2014-Jul-02 05:33N 01°14' E 103°46'0 0.1
2014-Jul-02 04:29N 01°14' E 103°46'0 0.0
2014-Jul-02 03:29N 01°14' E 103°46'0 0.0
2014-Jul-02 02:28N 01°14' E 103°46'0 0.0
2014-Jul-02 01:31N 01°14' E 103°46'0 0.0
2014-Jul-02 00:33N 01°14' E 103°46'0 0.0
2014-Jul-01 23:33N 01°14' E 103°46'0 0.0
2014-Jul-01 22:26N 01°14' E 103°46'0 0.0
2014-Jul-01 21:26N 01°14' E 103°46'0 0.0
2014-Jul-01 20:29N 01°14' E 103°46'0 0.0
2014-Jul-01 19:31N 01°14' E 103°46'0 0.0
2014-Jul-01 18:31N 01°14' E 103°46'0 0.0
2014-Jul-01 17:33N 01°14' E 103°46'0 0.0
2014-Jul-01 16:33N 01°14' E 103°46'0 0.0
2014-Jul-01 15:30N 01°14' E 103°46'1 1.1
2014-Jul-01 14:34N 01°14' E 103°47'8 7.9
2014-Jul-01 13:33N 01°15' E 103°55'0 0.4
2014-Jul-01 12:25N 01°15' E 103°55'0 0.0
2014-Jul-01 11:25N 01°15' E 103°55'0 0.0
2014-Jul-01 09:24N 01°15' E 103°55'0 0.0
2014-Jul-01 08:29N 01°15' E 103°55'0 0.0
2014-Jun-30 22:25N 01°15' E 103°55'0 0.0
2014-Jun-30 21:33N 01°15' E 103°55'0 0.0
2014-Jun-30 17:08N 01°15' E 103°55'0 0.0
2014-Jun-30 09:33N 01°15' E 103°55'7 7.0
2014-Jun-30 08:33N 01°13' E 103°48'5 3.5
2014-Jun-30 07:07N 01°17' E 103°44'0 0.0
2014-Jun-30 05:03N 01°17' E 103°44'0 0.0
2014-Jun-30 04:33N 01°17' E 103°44'0 0.0
2014-Jun-30 03:33N 01°17' E 103°44'0 0.0
2014-Jun-30 02:29N 01°17' E 103°44'0 0.0
2014-Jun-30 01:32N 01°17' E 103°44'0 0.0
2014-Jun-30 00:31N 01°17' E 103°44'0 0.0
2014-Jun-29 23:19N 01°17' E 103°44'0 0.0
2014-Jun-29 22:31N 01°17' E 103°44'0 0.0
2014-Jun-29 21:33N 01°17' E 103°44'0 0.0
2014-Jun-29 20:21N 01°17' E 103°44'0 0.0
2014-Jun-29 19:29N 01°17' E 103°44'0 0.0
2014-Jun-29 18:32N 01°17' E 103°44'0 0.0
2014-Jun-29 17:16N 01°17' E 103°44'0 0.0
2014-Jun-29 16:28N 01°17' E 103°44'0 0.0
2014-Jun-29 15:28N 01°17' E 103°44'0 0.0
2014-Jun-29 14:27N 01°17' E 103°44'0 0.0
2014-Jun-29 13:33N 01°17' E 103°44'0 0.0
2014-Jun-29 12:20N 01°17' E 103°44'0 0.0
2014-Jun-29 11:32N 01°17' E 103°44'0 0.0
2014-Jun-29 10:30N 01°17' E 103°44'0 0.0
2014-Jun-29 09:31N 01°17' E 103°44'0 0.0
2014-Jun-29 08:34N 01°17' E 103°44'0 0.0
2014-Jun-29 07:18N 01°17' E 103°44'0 0.0
2014-Jun-29 06:33N 01°17' E 103°44'0 0.0
2014-Jun-29 05:17N 01°17' E 103°44'0 0.0
2014-Jun-29 04:32N 01°17' E 103°44'0 0.1
2014-Jun-29 03:33N 01°17' E 103°44'2 2.2
2014-Jun-29 02:33N 01°15' E 103°43'4 4.1
2014-Jun-29 01:32N 01°12' E 103°40'0 0.0
2014-Jun-29 00:29N 01°12' E 103°40'0 0.0
2014-Jun-28 23:31N 01°12' E 103°40'1 0.9
2014-Jun-28 22:33N 01°12' E 103°40'5 5.0
2014-Jun-28 21:33N 01°12' E 103°35'5 4.8
2014-Jun-28 20:32N 01°09' E 103°31'  

Dump ship's entire track history